sensor_id;sensor_type;location;lat;lon;timestamp;temperature;humidity
46217;DHT22;47258;59.424;13.482;2022-10-17T00:00:43;8.60;99.90
46217;DHT22;47258;59.424;13.482;2022-10-17T00:03:10;8.60;99.90
46217;DHT22;47258;59.424;13.482;2022-10-17T00:05:39;8.60;99.90
46217;DHT22;47258;59.424;13.482;2022-10-17T00:08:06;8.60;99.90
46217;DHT22;47258;59.424;13.482;2022-10-17T00:10:35;8.60;99.90
46217;DHT22;47258;59.424;13.482;2022-10-17T00:13:03;8.50;99.90
46217;DHT22;47258;59.424;13.482;2022-10-17T00:15:30;8.50;99.90
46217;DHT22;47258;59.424;13.482;2022-10-17T00:17:59;8.50;99.90
46217;DHT22;47258;59.424;13.482;2022-10-17T00:20:26;8.50;99.90
46217;DHT22;47258;59.424;13.482;2022-10-17T00:22:55;8.50;99.90
46217;DHT22;47258;59.424;13.482;2022-10-17T00:25:22;8.50;99.90
46217;DHT22;47258;59.424;13.482;2022-10-17T00:27:50;8.60;99.90
46217;DHT22;47258;59.424;13.482;2022-10-17T00:30:17;8.60;99.90
46217;DHT22;47258;59.424;13.482;2022-10-17T00:32:44;8.60;99.90
46217;DHT22;47258;59.424;13.482;2022-10-17T00:35:11;8.70;99.90
46217;DHT22;47258;59.424;13.482;2022-10-17T00:37:38;8.60;99.90
46217;DHT22;47258;59.424;13.482;2022-10-17T00:40:06;8.60;99.90
46217;DHT22;47258;59.424;13.482;2022-10-17T00:42:33;8.60;99.90
46217;DHT22;47258;59.424;13.482;2022-10-17T00:45:07;8.60;99.90
46217;DHT22;47258;59.424;13.482;2022-10-17T00:47:35;8.60;99.90
46217;DHT22;47258;59.424;13.482;2022-10-17T00:50:04;8.60;99.90
46217;DHT22;47258;59.424;13.482;2022-10-17T00:52:32;8.60;99.90
46217;DHT22;47258;59.424;13.482;2022-10-17T00:55:03;8.60;99.90
46217;DHT22;47258;59.424;13.482;2022-10-17T00:57:32;8.60;99.90
46217;DHT22;47258;59.424;13.482;2022-10-17T01:00:04;8.60;99.90
46217;DHT22;47258;59.424;13.482;2022-10-17T01:02:31;8.60;99.90
46217;DHT22;47258;59.424;13.482;2022-10-17T01:04:58;8.60;99.90
46217;DHT22;47258;59.424;13.482;2022-10-17T01:07:27;8.60;99.90
46217;DHT22;47258;59.424;13.482;2022-10-17T01:09:55;8.60;99.90
46217;DHT22;47258;59.424;13.482;2022-10-17T01:12:23;8.60;99.90
46217;DHT22;47258;59.424;13.482;2022-10-17T01:15:04;8.60;99.90
46217;DHT22;47258;59.424;13.482;2022-10-17T01:17:38;8.60;99.90
46217;DHT22;47258;59.424;13.482;2022-10-17T01:23:11;8.50;99.90
46217;DHT22;47258;59.424;13.482;2022-10-17T01:25:51;8.50;99.90
46217;DHT22;47258;59.424;13.482;2022-10-17T01:28:31;8.50;99.90
46217;DHT22;47258;59.424;13.482;2022-10-17T01:31:10;8.50;99.90
46217;DHT22;47258;59.424;13.482;2022-10-17T01:33:45;8.50;99.90
46217;DHT22;47258;59.424;13.482;2022-10-17T01:36:23;8.50;99.90
46217;DHT22;47258;59.424;13.482;2022-10-17T01:38:57;8.50;99.90
46217;DHT22;47258;59.424;13.482;2022-10-17T01:41:31;8.50;99.90
46217;DHT22;47258;59.424;13.482;2022-10-17T01:44:06;8.50;99.90
46217;DHT22;47258;59.424;13.482;2022-10-17T01:46:36;8.50;99.90
46217;DHT22;47258;59.424;13.482;2022-10-17T01:49:04;8.50;99.90
46217;DHT22;47258;59.424;13.482;2022-10-17T01:51:36;8.50;99.90
46217;DHT22;47258;59.424;13.482;2022-10-17T01:54:08;8.50;99.90
46217;DHT22;47258;59.424;13.482;2022-10-17T01:56:39;8.50;99.90
46217;DHT22;47258;59.424;13.482;2022-10-17T01:59:11;8.40;99.90
46217;DHT22;47258;59.424;13.482;2022-10-17T02:01:43;8.40;99.90
46217;DHT22;47258;59.424;13.482;2022-10-17T02:04:10;8.50;99.90
46217;DHT22;47258;59.424;13.482;2022-10-17T02:06:38;8.50;99.90
46217;DHT22;47258;59.424;13.482;2022-10-17T02:09:17;8.50;99.90
46217;DHT22;47258;59.424;13.482;2022-10-17T02:11:51;8.40;99.90
46217;DHT22;47258;59.424;13.482;2022-10-17T02:14:28;8.40;99.90
46217;DHT22;47258;59.424;13.482;2022-10-17T02:17:07;8.40;99.90
46217;DHT22;47258;59.424;13.482;2022-10-17T02:19:53;8.40;99.90
46217;DHT22;47258;59.424;13.482;2022-10-17T02:22:29;8.40;99.90
46217;DHT22;47258;59.424;13.482;2022-10-17T02:25:02;8.40;99.90
46217;DHT22;47258;59.424;13.482;2022-10-17T02:27:38;8.40;99.90
46217;DHT22;47258;59.424;13.482;2022-10-17T02:30:12;8.40;99.90
46217;DHT22;47258;59.424;13.482;2022-10-17T02:32:48;8.30;99.90
46217;DHT22;47258;59.424;13.482;2022-10-17T02:35:17;8.30;99.90
46217;DHT22;47258;59.424;13.482;2022-10-17T02:37:45;8.40;99.90
46217;DHT22;47258;59.424;13.482;2022-10-17T02:40:14;8.30;99.90
46217;DHT22;47258;59.424;13.482;2022-10-17T02:42:44;8.30;99.90
46217;DHT22;47258;59.424;13.482;2022-10-17T02:45:12;8.30;99.90
46217;DHT22;47258;59.424;13.482;2022-10-17T02:47:47;8.30;99.90
46217;DHT22;47258;59.424;13.482;2022-10-17T02:50:17;8.30;99.90
46217;DHT22;47258;59.424;13.482;2022-10-17T02:52:47;8.20;99.90
46217;DHT22;47258;59.424;13.482;2022-10-17T02:55:18;8.20;99.90
46217;DHT22;47258;59.424;13.482;2022-10-17T02:57:47;8.20;99.90
46217;DHT22;47258;59.424;13.482;2022-10-17T03:00:15;8.10;99.90
46217;DHT22;47258;59.424;13.482;2022-10-17T03:02:44;8.10;99.90
46217;DHT22;47258;59.424;13.482;2022-10-17T03:05:15;8.00;99.90
46217;DHT22;47258;59.424;13.482;2022-10-17T03:07:42;7.90;99.90
46217;DHT22;47258;59.424;13.482;2022-10-17T03:10:09;8.00;99.90
46217;DHT22;47258;59.424;13.482;2022-10-17T03:12:36;7.90;99.90
46217;DHT22;47258;59.424;13.482;2022-10-17T03:15:04;7.90;99.90
46217;DHT22;47258;59.424;13.482;2022-10-17T03:17:31;7.90;99.90
46217;DHT22;47258;59.424;13.482;2022-10-17T03:19:58;7.80;99.90
46217;DHT22;47258;59.424;13.482;2022-10-17T03:22:26;7.80;99.90
46217;DHT22;47258;59.424;13.482;2022-10-17T03:24:53;7.80;99.90
46217;DHT22;47258;59.424;13.482;2022-10-17T03:27:20;7.80;99.90
46217;DHT22;47258;59.424;13.482;2022-10-17T03:29:47;7.70;99.90
46217;DHT22;47258;59.424;13.482;2022-10-17T03:32:14;7.80;99.90
46217;DHT22;47258;59.424;13.482;2022-10-17T03:34:41;7.80;99.90
46217;DHT22;47258;59.424;13.482;2022-10-17T03:37:08;7.80;99.90
46217;DHT22;47258;59.424;13.482;2022-10-17T03:39:36;7.80;99.90
46217;DHT22;47258;59.424;13.482;2022-10-17T03:42:03;7.80;99.90
46217;DHT22;47258;59.424;13.482;2022-10-17T03:44:30;7.80;99.90
46217;DHT22;47258;59.424;13.482;2022-10-17T03:46:57;7.80;99.90
46217;DHT22;47258;59.424;13.482;2022-10-17T03:49:24;7.70;99.90
46217;DHT22;47258;59.424;13.482;2022-10-17T03:51:51;7.80;99.90
46217;DHT22;47258;59.424;13.482;2022-10-17T03:54:17;7.80;99.90
46217;DHT22;47258;59.424;13.482;2022-10-17T03:56:46;7.80;99.90
46217;DHT22;47258;59.424;13.482;2022-10-17T03:59:14;7.70;99.90
46217;DHT22;47258;59.424;13.482;2022-10-17T04:01:41;7.60;99.90
46217;DHT22;47258;59.424;13.482;2022-10-17T04:04:08;7.70;99.90
46217;DHT22;47258;59.424;13.482;2022-10-17T04:06:35;7.70;99.90
46217;DHT22;47258;59.424;13.482;2022-10-17T04:09:03;7.60;99.90
46217;DHT22;47258;59.424;13.482;2022-10-17T04:11:30;7.70;99.90
46217;DHT22;47258;59.424;13.482;2022-10-17T04:13:58;7.70;99.90
46217;DHT22;47258;59.424;13.482;2022-10-17T04:16:26;7.70;99.90
46217;DHT22;47258;59.424;13.482;2022-10-17T04:18:54;7.70;99.90
46217;DHT22;47258;59.424;13.482;2022-10-17T04:21:21;7.70;99.90
46217;DHT22;47258;59.424;13.482;2022-10-17T04:23:52;7.70;99.90
46217;DHT22;47258;59.424;13.482;2022-10-17T04:26:19;7.70;99.90
46217;DHT22;47258;59.424;13.482;2022-10-17T04:28:46;7.70;99.90
46217;DHT22;47258;59.424;13.482;2022-10-17T04:31:15;7.70;99.90
46217;DHT22;47258;59.424;13.482;2022-10-17T04:33:42;7.70;99.90
46217;DHT22;47258;59.424;13.482;2022-10-17T04:36:11;7.70;99.90
46217;DHT22;47258;59.424;13.482;2022-10-17T04:38:38;7.70;99.90
46217;DHT22;47258;59.424;13.482;2022-10-17T04:41:06;7.70;99.90
46217;DHT22;47258;59.424;13.482;2022-10-17T04:43:35;7.70;99.90
46217;DHT22;47258;59.424;13.482;2022-10-17T04:46:04;7.70;99.90
46217;DHT22;47258;59.424;13.482;2022-10-17T04:48:33;7.70;99.90
46217;DHT22;47258;59.424;13.482;2022-10-17T04:51:01;7.70;99.90
46217;DHT22;47258;59.424;13.482;2022-10-17T04:53:30;7.70;99.90
46217;DHT22;47258;59.424;13.482;2022-10-17T04:55:57;7.70;99.90
46217;DHT22;47258;59.424;13.482;2022-10-17T04:58:25;7.70;99.90
46217;DHT22;47258;59.424;13.482;2022-10-17T05:00:51;7.70;99.90
46217;DHT22;47258;59.424;13.482;2022-10-17T05:03:18;7.70;99.90
46217;DHT22;47258;59.424;13.482;2022-10-17T05:05:47;7.60;99.90
46217;DHT22;47258;59.424;13.482;2022-10-17T05:08:14;7.60;99.90
46217;DHT22;47258;59.424;13.482;2022-10-17T05:10:42;7.60;99.90
46217;DHT22;47258;59.424;13.482;2022-10-17T05:13:10;7.60;99.90
46217;DHT22;47258;59.424;13.482;2022-10-17T05:15:38;7.60;99.90
46217;DHT22;47258;59.424;13.482;2022-10-17T05:18:05;7.60;99.90
46217;DHT22;47258;59.424;13.482;2022-10-17T05:20:32;7.60;99.90
46217;DHT22;47258;59.424;13.482;2022-10-17T05:23:01;7.60;99.90
46217;DHT22;47258;59.424;13.482;2022-10-17T05:25:28;7.60;99.90
46217;DHT22;47258;59.424;13.482;2022-10-17T05:27:55;7.60;99.90
46217;DHT22;47258;59.424;13.482;2022-10-17T05:30:22;7.60;99.90
46217;DHT22;47258;59.424;13.482;2022-10-17T05:32:51;7.60;99.90
46217;DHT22;47258;59.424;13.482;2022-10-17T05:35:19;7.60;99.90
46217;DHT22;47258;59.424;13.482;2022-10-17T05:37:46;7.60;99.90
46217;DHT22;47258;59.424;13.482;2022-10-17T05:40:15;7.60;99.90
46217;DHT22;47258;59.424;13.482;2022-10-17T05:42:45;7.60;99.90
46217;DHT22;47258;59.424;13.482;2022-10-17T05:45:12;7.60;99.90
46217;DHT22;47258;59.424;13.482;2022-10-17T05:47:39;7.50;99.90
46217;DHT22;47258;59.424;13.482;2022-10-17T05:50:07;7.50;99.90
46217;DHT22;47258;59.424;13.482;2022-10-17T05:52:35;7.40;99.90
46217;DHT22;47258;59.424;13.482;2022-10-17T05:55:02;7.40;99.90
46217;DHT22;47258;59.424;13.482;2022-10-17T05:57:30;7.40;99.90
46217;DHT22;47258;59.424;13.482;2022-10-17T05:59:57;7.40;99.90
46217;DHT22;47258;59.424;13.482;2022-10-17T06:02:25;7.40;99.90
46217;DHT22;47258;59.424;13.482;2022-10-17T06:04:52;7.40;99.90
46217;DHT22;47258;59.424;13.482;2022-10-17T06:07:19;7.40;99.90
46217;DHT22;47258;59.424;13.482;2022-10-17T06:09:46;7.40;99.90
46217;DHT22;47258;59.424;13.482;2022-10-17T06:12:13;7.40;99.90
46217;DHT22;47258;59.424;13.482;2022-10-17T06:14:41;7.40;99.90
46217;DHT22;47258;59.424;13.482;2022-10-17T06:17:08;7.50;99.90
46217;DHT22;47258;59.424;13.482;2022-10-17T06:19:35;7.40;99.90
46217;DHT22;47258;59.424;13.482;2022-10-17T06:22:02;7.40;99.90
46217;DHT22;47258;59.424;13.482;2022-10-17T06:24:29;7.40;99.90
46217;DHT22;47258;59.424;13.482;2022-10-17T06:26:56;7.50;99.90
46217;DHT22;47258;59.424;13.482;2022-10-17T06:29:23;7.50;99.90
46217;DHT22;47258;59.424;13.482;2022-10-17T06:31:51;7.50;99.90
46217;DHT22;47258;59.424;13.482;2022-10-17T06:34:19;7.50;99.90
46217;DHT22;47258;59.424;13.482;2022-10-17T06:36:46;7.50;99.90
46217;DHT22;47258;59.424;13.482;2022-10-17T06:39:13;7.50;99.90
46217;DHT22;47258;59.424;13.482;2022-10-17T06:41:40;7.50;99.90
46217;DHT22;47258;59.424;13.482;2022-10-17T06:44:09;7.50;99.90
46217;DHT22;47258;59.424;13.482;2022-10-17T06:46:36;7.60;99.90
46217;DHT22;47258;59.424;13.482;2022-10-17T06:49:05;7.90;99.90
46217;DHT22;47258;59.424;13.482;2022-10-17T06:51:34;7.90;99.90
46217;DHT22;47258;59.424;13.482;2022-10-17T06:54:02;7.90;99.90
46217;DHT22;47258;59.424;13.482;2022-10-17T06:56:29;7.90;99.90
46217;DHT22;47258;59.424;13.482;2022-10-17T06:58:56;7.90;99.90
46217;DHT22;47258;59.424;13.482;2022-10-17T07:01:23;7.90;99.90
46217;DHT22;47258;59.424;13.482;2022-10-17T07:03:51;7.90;99.90
46217;DHT22;47258;59.424;13.482;2022-10-17T07:06:19;7.90;99.90
46217;DHT22;47258;59.424;13.482;2022-10-17T07:08:49;8.00;99.90
46217;DHT22;47258;59.424;13.482;2022-10-17T07:11:17;8.30;99.90
46217;DHT22;47258;59.424;13.482;2022-10-17T07:13:44;8.40;99.90
46217;DHT22;47258;59.424;13.482;2022-10-17T07:16:12;8.70;99.90
46217;DHT22;47258;59.424;13.482;2022-10-17T07:18:39;8.90;99.90
46217;DHT22;47258;59.424;13.482;2022-10-17T07:21:07;9.50;99.90
46217;DHT22;47258;59.424;13.482;2022-10-17T07:23:36;9.50;99.90
46217;DHT22;47258;59.424;13.482;2022-10-17T07:26:06;9.20;99.90
46217;DHT22;47258;59.424;13.482;2022-10-17T07:28:33;9.00;99.90
46217;DHT22;47258;59.424;13.482;2022-10-17T07:31:04;8.90;99.90
46217;DHT22;47258;59.424;13.482;2022-10-17T07:33:31;8.90;99.90
46217;DHT22;47258;59.424;13.482;2022-10-17T07:35:58;8.90;99.90
46217;DHT22;47258;59.424;13.482;2022-10-17T07:38:25;8.90;99.90
46217;DHT22;47258;59.424;13.482;2022-10-17T07:40:54;8.90;99.90
46217;DHT22;47258;59.424;13.482;2022-10-17T07:43:22;9.00;99.90
46217;DHT22;47258;59.424;13.482;2022-10-17T07:45:49;9.00;99.90
46217;DHT22;47258;59.424;13.482;2022-10-17T07:48:16;9.00;99.90
46217;DHT22;47258;59.424;13.482;2022-10-17T07:50:43;9.00;99.90
46217;DHT22;47258;59.424;13.482;2022-10-17T07:53:10;9.00;99.90
46217;DHT22;47258;59.424;13.482;2022-10-17T07:55:37;9.10;99.90
46217;DHT22;47258;59.424;13.482;2022-10-17T07:58:06;9.20;99.90
46217;DHT22;47258;59.424;13.482;2022-10-17T08:00:33;9.20;99.90
46217;DHT22;47258;59.424;13.482;2022-10-17T08:03:00;9.30;99.90
46217;DHT22;47258;59.424;13.482;2022-10-17T08:05:28;9.40;99.90
46217;DHT22;47258;59.424;13.482;2022-10-17T08:07:55;9.40;99.90
46217;DHT22;47258;59.424;13.482;2022-10-17T08:10:22;9.70;99.90
46217;DHT22;47258;59.424;13.482;2022-10-17T08:12:52;10.00;99.90
46217;DHT22;47258;59.424;13.482;2022-10-17T08:15:20;10.10;99.90
46217;DHT22;47258;59.424;13.482;2022-10-17T08:17:48;10.10;99.90
46217;DHT22;47258;59.424;13.482;2022-10-17T08:20:15;10.10;99.90
46217;DHT22;47258;59.424;13.482;2022-10-17T08:22:42;10.00;99.90
46217;DHT22;47258;59.424;13.482;2022-10-17T08:25:09;10.00;99.90
46217;DHT22;47258;59.424;13.482;2022-10-17T08:27:36;10.10;99.90
46217;DHT22;47258;59.424;13.482;2022-10-17T08:30:03;10.10;99.90
46217;DHT22;47258;59.424;13.482;2022-10-17T08:32:32;10.10;99.90
46217;DHT22;47258;59.424;13.482;2022-10-17T08:34:59;10.10;99.90
46217;DHT22;47258;59.424;13.482;2022-10-17T08:37:26;10.20;99.90
46217;DHT22;47258;59.424;13.482;2022-10-17T08:39:54;10.20;99.90
46217;DHT22;47258;59.424;13.482;2022-10-17T08:42:32;10.20;99.90
46217;DHT22;47258;59.424;13.482;2022-10-17T08:45:09;10.20;99.90
46217;DHT22;47258;59.424;13.482;2022-10-17T08:47:43;10.20;99.90
46217;DHT22;47258;59.424;13.482;2022-10-17T08:50:16;10.20;99.90
46217;DHT22;47258;59.424;13.482;2022-10-17T08:52:47;10.20;99.90
46217;DHT22;47258;59.424;13.482;2022-10-17T08:55:26;10.20;99.90
46217;DHT22;47258;59.424;13.482;2022-10-17T08:57:54;10.30;99.90
46217;DHT22;47258;59.424;13.482;2022-10-17T09:00:21;10.30;99.90
46217;DHT22;47258;59.424;13.482;2022-10-17T09:03:01;10.30;99.90
46217;DHT22;47258;59.424;13.482;2022-10-17T09:05:39;10.40;99.90
46217;DHT22;47258;59.424;13.482;2022-10-17T09:08:17;10.50;99.90
46217;DHT22;47258;59.424;13.482;2022-10-17T09:10:55;10.50;99.90
46217;DHT22;47258;59.424;13.482;2022-10-17T09:13:42;10.50;99.90
46217;DHT22;47258;59.424;13.482;2022-10-17T09:19:08;10.70;99.90
46217;DHT22;47258;59.424;13.482;2022-10-17T09:21:42;10.70;99.90
46217;DHT22;47258;59.424;13.482;2022-10-17T09:24:15;10.80;99.90
46217;DHT22;47258;59.424;13.482;2022-10-17T09:26:44;10.90;99.90
46217;DHT22;47258;59.424;13.482;2022-10-17T09:29:17;10.90;99.90
46217;DHT22;47258;59.424;13.482;2022-10-17T09:31:50;10.90;99.90
46217;DHT22;47258;59.424;13.482;2022-10-17T09:34:20;11.00;99.90
46217;DHT22;47258;59.424;13.482;2022-10-17T09:36:48;11.00;99.90
46217;DHT22;47258;59.424;13.482;2022-10-17T09:39:17;11.10;99.90
46217;DHT22;47258;59.424;13.482;2022-10-17T09:41:48;11.10;99.90
46217;DHT22;47258;59.424;13.482;2022-10-17T09:44:18;11.20;99.90
46217;DHT22;47258;59.424;13.482;2022-10-17T09:47:07;11.20;99.90
46217;DHT22;47258;59.424;13.482;2022-10-17T09:49:40;11.30;99.90
46217;DHT22;47258;59.424;13.482;2022-10-17T09:52:11;11.30;99.90
46217;DHT22;47258;59.424;13.482;2022-10-17T09:54:43;11.30;99.90
46217;DHT22;47258;59.424;13.482;2022-10-17T09:57:11;11.30;99.90
46217;DHT22;47258;59.424;13.482;2022-10-17T09:59:41;11.30;99.90
46217;DHT22;47258;59.424;13.482;2022-10-17T10:02:17;11.30;99.90
46217;DHT22;47258;59.424;13.482;2022-10-17T10:05:00;11.30;99.90
46217;DHT22;47258;59.424;13.482;2022-10-17T10:07:30;11.40;99.90
46217;DHT22;47258;59.424;13.482;2022-10-17T10:09:58;11.40;99.90
46217;DHT22;47258;59.424;13.482;2022-10-17T10:12:28;11.40;99.90
46217;DHT22;47258;59.424;13.482;2022-10-17T10:14:56;11.40;99.90
46217;DHT22;47258;59.424;13.482;2022-10-17T10:17:35;11.40;99.90
46217;DHT22;47258;59.424;13.482;2022-10-17T10:20:26;11.40;99.90
46217;DHT22;47258;59.424;13.482;2022-10-17T10:23:11;11.40;99.90
46217;DHT22;47258;59.424;13.482;2022-10-17T10:25:48;11.40;99.90
46217;DHT22;47258;59.424;13.482;2022-10-17T10:28:17;11.40;99.90
46217;DHT22;47258;59.424;13.482;2022-10-17T10:30:48;11.40;99.90
46217;DHT22;47258;59.424;13.482;2022-10-17T10:33:18;11.40;99.90
46217;DHT22;47258;59.424;13.482;2022-10-17T10:35:54;11.40;99.90
46217;DHT22;47258;59.424;13.482;2022-10-17T10:38:22;11.40;99.90
46217;DHT22;47258;59.424;13.482;2022-10-17T10:40:50;11.40;99.90
46217;DHT22;47258;59.424;13.482;2022-10-17T10:43:23;11.40;99.90
46217;DHT22;47258;59.424;13.482;2022-10-17T10:45:52;11.30;99.90
46217;DHT22;47258;59.424;13.482;2022-10-17T10:48:21;11.30;99.90
46217;DHT22;47258;59.424;13.482;2022-10-17T10:50:49;11.30;99.90
46217;DHT22;47258;59.424;13.482;2022-10-17T10:53:32;11.30;99.90
46217;DHT22;47258;59.424;13.482;2022-10-17T10:56:04;11.30;99.90
46217;DHT22;47258;59.424;13.482;2022-10-17T10:58:49;11.30;99.90
46217;DHT22;47258;59.424;13.482;2022-10-17T11:01:30;11.30;99.90
46217;DHT22;47258;59.424;13.482;2022-10-17T11:04:19;11.30;99.90
46217;DHT22;47258;59.424;13.482;2022-10-17T11:06:49;11.20;99.90
46217;DHT22;47258;59.424;13.482;2022-10-17T11:09:28;11.20;99.90
46217;DHT22;47258;59.424;13.482;2022-10-17T11:12:00;11.20;99.90
46217;DHT22;47258;59.424;13.482;2022-10-17T11:14:38;11.20;99.90
46217;DHT22;47258;59.424;13.482;2022-10-17T11:17:15;11.20;99.90
46217;DHT22;47258;59.424;13.482;2022-10-17T11:19:48;11.20;99.90
46217;DHT22;47258;59.424;13.482;2022-10-17T11:22:23;11.20;99.90
46217;DHT22;47258;59.424;13.482;2022-10-17T11:24:58;11.20;99.90
46217;DHT22;47258;59.424;13.482;2022-10-17T11:27:27;11.20;99.90
46217;DHT22;47258;59.424;13.482;2022-10-17T11:29:55;11.20;99.90
46217;DHT22;47258;59.424;13.482;2022-10-17T11:32:26;11.20;99.90
46217;DHT22;47258;59.424;13.482;2022-10-17T11:34:59;11.20;99.90
46217;DHT22;47258;59.424;13.482;2022-10-17T11:37:30;11.20;99.90
46217;DHT22;47258;59.424;13.482;2022-10-17T11:40:03;11.20;99.90
46217;DHT22;47258;59.424;13.482;2022-10-17T11:42:35;11.20;99.90
46217;DHT22;47258;59.424;13.482;2022-10-17T11:45:08;11.20;99.90
46217;DHT22;47258;59.424;13.482;2022-10-17T11:47:41;11.20;99.90
46217;DHT22;47258;59.424;13.482;2022-10-17T11:50:18;11.20;99.90
46217;DHT22;47258;59.424;13.482;2022-10-17T11:52:49;11.20;99.90
46217;DHT22;47258;59.424;13.482;2022-10-17T11:55:21;11.20;99.90
46217;DHT22;47258;59.424;13.482;2022-10-17T11:58:00;11.20;99.90
46217;DHT22;47258;59.424;13.482;2022-10-17T12:00:42;11.30;99.90
46217;DHT22;47258;59.424;13.482;2022-10-17T12:03:25;11.30;99.90
46217;DHT22;47258;59.424;13.482;2022-10-17T12:05:57;11.30;99.90
46217;DHT22;47258;59.424;13.482;2022-10-17T12:08:30;11.30;99.90
46217;DHT22;47258;59.424;13.482;2022-10-17T12:11:05;11.30;99.90
46217;DHT22;47258;59.424;13.482;2022-10-17T12:13:49;11.30;99.90
46217;DHT22;47258;59.424;13.482;2022-10-17T12:16:43;11.30;99.90
46217;DHT22;47258;59.424;13.482;2022-10-17T12:19:25;11.40;99.90
46217;DHT22;47258;59.424;13.482;2022-10-17T12:21:55;11.40;99.90
46217;DHT22;47258;59.424;13.482;2022-10-17T12:24:33;11.40;99.90
46217;DHT22;47258;59.424;13.482;2022-10-17T12:27:27;11.40;99.90
46217;DHT22;47258;59.424;13.482;2022-10-17T12:29:58;11.40;99.90
46217;DHT22;47258;59.424;13.482;2022-10-17T12:32:26;11.40;99.90
46217;DHT22;47258;59.424;13.482;2022-10-17T12:34:54;11.40;99.90
46217;DHT22;47258;59.424;13.482;2022-10-17T12:38:04;11.40;99.90
46217;DHT22;47258;59.424;13.482;2022-10-17T12:40:54;11.40;99.90
46217;DHT22;47258;59.424;13.482;2022-10-17T12:46:45;11.40;99.90
46217;DHT22;47258;59.424;13.482;2022-10-17T12:55:09;11.40;99.90
46217;DHT22;47258;59.424;13.482;2022-10-17T12:57:41;11.40;99.90
46217;DHT22;47258;59.424;13.482;2022-10-17T13:00:16;11.40;99.90
46217;DHT22;47258;59.424;13.482;2022-10-17T13:02:46;11.50;99.90
46217;DHT22;47258;59.424;13.482;2022-10-17T13:05:16;11.50;99.90
46217;DHT22;47258;59.424;13.482;2022-10-17T13:07:47;11.50;99.90
46217;DHT22;47258;59.424;13.482;2022-10-17T13:10:23;11.60;99.90
46217;DHT22;47258;59.424;13.482;2022-10-17T13:12:53;11.60;99.90
46217;DHT22;47258;59.424;13.482;2022-10-17T13:15:23;11.60;99.90
46217;DHT22;47258;59.424;13.482;2022-10-17T13:18:00;11.60;99.90
46217;DHT22;47258;59.424;13.482;2022-10-17T13:20:29;11.60;99.90
46217;DHT22;47258;59.424;13.482;2022-10-17T13:22:56;11.70;99.90
46217;DHT22;47258;59.424;13.482;2022-10-17T13:25:25;11.70;99.90
46217;DHT22;47258;59.424;13.482;2022-10-17T13:28:04;11.60;99.90
46217;DHT22;47258;59.424;13.482;2022-10-17T13:30:34;11.70;99.90
46217;DHT22;47258;59.424;13.482;2022-10-17T13:33:17;11.60;99.90
46217;DHT22;47258;59.424;13.482;2022-10-17T13:35:52;11.60;99.90
46217;DHT22;47258;59.424;13.482;2022-10-17T13:38:23;11.60;99.90
46217;DHT22;47258;59.424;13.482;2022-10-17T13:40:51;11.60;99.90
46217;DHT22;47258;59.424;13.482;2022-10-17T13:43:20;11.60;99.90
46217;DHT22;47258;59.424;13.482;2022-10-17T13:45:50;11.60;99.90
46217;DHT22;47258;59.424;13.482;2022-10-17T13:48:21;11.60;99.90
46217;DHT22;47258;59.424;13.482;2022-10-17T13:50:51;11.60;99.90
46217;DHT22;47258;59.424;13.482;2022-10-17T13:53:24;11.60;99.90
46217;DHT22;47258;59.424;13.482;2022-10-17T13:55:53;11.60;99.90
46217;DHT22;47258;59.424;13.482;2022-10-17T13:58:20;11.60;99.90
46217;DHT22;47258;59.424;13.482;2022-10-17T14:00:47;11.60;99.90
46217;DHT22;47258;59.424;13.482;2022-10-17T14:03:15;11.60;99.90
46217;DHT22;47258;59.424;13.482;2022-10-17T14:06:03;11.60;99.90
46217;DHT22;47258;59.424;13.482;2022-10-17T14:08:32;11.50;99.90
46217;DHT22;47258;59.424;13.482;2022-10-17T14:11:00;11.50;99.90
46217;DHT22;47258;59.424;13.482;2022-10-17T14:13:29;11.50;99.90
46217;DHT22;47258;59.424;13.482;2022-10-17T14:16:00;11.50;99.90
46217;DHT22;47258;59.424;13.482;2022-10-17T14:18:30;11.50;99.90
46217;DHT22;47258;59.424;13.482;2022-10-17T14:21:00;11.50;99.90
46217;DHT22;47258;59.424;13.482;2022-10-17T14:23:35;11.50;99.90
46217;DHT22;47258;59.424;13.482;2022-10-17T14:26:11;11.50;99.90
46217;DHT22;47258;59.424;13.482;2022-10-17T14:28:39;11.40;99.90
46217;DHT22;47258;59.424;13.482;2022-10-17T14:31:23;11.40;99.90
46217;DHT22;47258;59.424;13.482;2022-10-17T14:33:52;11.40;99.90
46217;DHT22;47258;59.424;13.482;2022-10-17T14:36:20;11.40;99.90
46217;DHT22;47258;59.424;13.482;2022-10-17T14:38:57;11.40;99.90
46217;DHT22;47258;59.424;13.482;2022-10-17T14:41:26;11.40;99.90
46217;DHT22;47258;59.424;13.482;2022-10-17T14:43:56;11.40;99.90
46217;DHT22;47258;59.424;13.482;2022-10-17T14:46:24;11.30;99.90
46217;DHT22;47258;59.424;13.482;2022-10-17T14:49:02;11.40;99.90
46217;DHT22;47258;59.424;13.482;2022-10-17T14:51:29;11.30;99.90
46217;DHT22;47258;59.424;13.482;2022-10-17T14:54:12;11.30;99.90
46217;DHT22;47258;59.424;13.482;2022-10-17T14:56:48;11.40;99.90
46217;DHT22;47258;59.424;13.482;2022-10-17T14:59:16;11.40;99.90
46217;DHT22;47258;59.424;13.482;2022-10-17T15:01:46;11.30;99.90
46217;DHT22;47258;59.424;13.482;2022-10-17T15:04:13;11.30;99.90
46217;DHT22;47258;59.424;13.482;2022-10-17T15:06:40;11.30;99.90
46217;DHT22;47258;59.424;13.482;2022-10-17T15:09:09;11.20;99.90
46217;DHT22;47258;59.424;13.482;2022-10-17T15:11:37;11.20;99.90
46217;DHT22;47258;59.424;13.482;2022-10-17T15:14:04;11.20;99.90
46217;DHT22;47258;59.424;13.482;2022-10-17T15:16:32;11.20;99.90
46217;DHT22;47258;59.424;13.482;2022-10-17T15:19:00;11.20;99.90
46217;DHT22;47258;59.424;13.482;2022-10-17T15:21:27;11.20;99.90
46217;DHT22;47258;59.424;13.482;2022-10-17T15:23:54;11.20;99.90
46217;DHT22;47258;59.424;13.482;2022-10-17T15:26:26;11.20;99.90
46217;DHT22;47258;59.424;13.482;2022-10-17T15:28:55;11.20;99.90
46217;DHT22;47258;59.424;13.482;2022-10-17T15:31:24;11.10;99.90
46217;DHT22;47258;59.424;13.482;2022-10-17T15:33:51;11.10;99.90
46217;DHT22;47258;59.424;13.482;2022-10-17T15:36:23;11.10;99.90
46217;DHT22;47258;59.424;13.482;2022-10-17T15:38:52;11.10;99.90
46217;DHT22;47258;59.424;13.482;2022-10-17T15:41:20;11.00;99.90
46217;DHT22;47258;59.424;13.482;2022-10-17T15:43:49;11.00;99.90
46217;DHT22;47258;59.424;13.482;2022-10-17T15:46:17;11.00;99.90
46217;DHT22;47258;59.424;13.482;2022-10-17T15:48:46;11.00;99.90
46217;DHT22;47258;59.424;13.482;2022-10-17T15:51:13;11.00;99.90
46217;DHT22;47258;59.424;13.482;2022-10-17T15:53:40;10.90;99.90
46217;DHT22;47258;59.424;13.482;2022-10-17T15:56:14;10.90;99.90
46217;DHT22;47258;59.424;13.482;2022-10-17T15:58:44;10.90;99.90